sensor_id;sensor_type;location;lat;lon;timestamp;temperature;humidity
20376;DHT22;10347;51.828;6.466;2023-04-24T00:01:39;12.40;99.90
20376;DHT22;10347;51.828;6.466;2023-04-24T00:04:05;12.40;99.90
20376;DHT22;10347;51.828;6.466;2023-04-24T00:06:32;12.40;99.90
20376;DHT22;10347;51.828;6.466;2023-04-24T00:09:05;12.30;99.90
20376;DHT22;10347;51.828;6.466;2023-04-24T00:11:31;12.40;99.90
20376;DHT22;10347;51.828;6.466;2023-04-24T00:13:57;12.30;99.90
20376;DHT22;10347;51.828;6.466;2023-04-24T00:16:22;12.30;99.90
20376;DHT22;10347;51.828;6.466;2023-04-24T00:18:48;12.30;99.90
20376;DHT22;10347;51.828;6.466;2023-04-24T00:21:15;12.30;99.90
20376;DHT22;10347;51.828;6.466;2023-04-24T00:23:43;12.30;99.90
20376;DHT22;10347;51.828;6.466;2023-04-24T00:26:09;12.30;99.90
20376;DHT22;10347;51.828;6.466;2023-04-24T00:28:34;12.30;99.90
20376;DHT22;10347;51.828;6.466;2023-04-24T00:31:00;12.30;99.90
20376;DHT22;10347;51.828;6.466;2023-04-24T00:33:26;12.20;99.90
20376;DHT22;10347;51.828;6.466;2023-04-24T00:35:51;12.20;99.90
20376;DHT22;10347;51.828;6.466;2023-04-24T00:38:17;12.20;99.90
20376;DHT22;10347;51.828;6.466;2023-04-24T00:40:43;12.30;99.90
20376;DHT22;10347;51.828;6.466;2023-04-24T00:43:08;12.30;99.90
20376;DHT22;10347;51.828;6.466;2023-04-24T00:45:34;12.20;99.90
20376;DHT22;10347;51.828;6.466;2023-04-24T00:48:00;12.30;99.90
20376;DHT22;10347;51.828;6.466;2023-04-24T00:50:26;12.30;99.90
20376;DHT22;10347;51.828;6.466;2023-04-24T00:52:51;12.30;99.90
20376;DHT22;10347;51.828;6.466;2023-04-24T00:55:18;12.30;99.90
20376;DHT22;10347;51.828;6.466;2023-04-24T00:57:44;12.30;99.90
20376;DHT22;10347;51.828;6.466;2023-04-24T01:00:10;12.30;99.90
20376;DHT22;10347;51.828;6.466;2023-04-24T01:02:41;12.30;99.90
20376;DHT22;10347;51.828;6.466;2023-04-24T01:05:13;12.20;99.90
20376;DHT22;10347;51.828;6.466;2023-04-24T01:07:41;12.20;99.90
20376;DHT22;10347;51.828;6.466;2023-04-24T01:10:11;12.20;99.90
20376;DHT22;10347;51.828;6.466;2023-04-24T01:12:38;12.30;99.90
20376;DHT22;10347;51.828;6.466;2023-04-24T01:15:04;12.30;99.90
20376;DHT22;10347;51.828;6.466;2023-04-24T01:17:30;12.30;99.90
20376;DHT22;10347;51.828;6.466;2023-04-24T01:19:56;12.30;99.90
20376;DHT22;10347;51.828;6.466;2023-04-24T01:22:22;12.30;99.90
20376;DHT22;10347;51.828;6.466;2023-04-24T01:24:48;12.20;99.90
20376;DHT22;10347;51.828;6.466;2023-04-24T01:27:14;12.20;99.90
20376;DHT22;10347;51.828;6.466;2023-04-24T01:29:40;12.20;99.90
20376;DHT22;10347;51.828;6.466;2023-04-24T01:32:06;12.20;99.90
20376;DHT22;10347;51.828;6.466;2023-04-24T01:34:32;12.20;99.90
20376;DHT22;10347;51.828;6.466;2023-04-24T01:36:58;12.20;99.90
20376;DHT22;10347;51.828;6.466;2023-04-24T01:39:24;12.20;99.90
20376;DHT22;10347;51.828;6.466;2023-04-24T01:41:51;12.20;99.90
20376;DHT22;10347;51.828;6.466;2023-04-24T01:44:17;12.20;99.90
20376;DHT22;10347;51.828;6.466;2023-04-24T01:46:43;12.20;99.90
20376;DHT22;10347;51.828;6.466;2023-04-24T01:49:09;12.20;99.90
20376;DHT22;10347;51.828;6.466;2023-04-24T01:51:35;12.10;99.90
20376;DHT22;10347;51.828;6.466;2023-04-24T01:54:00;12.10;99.90
20376;DHT22;10347;51.828;6.466;2023-04-24T01:56:29;12.10;99.90
20376;DHT22;10347;51.828;6.466;2023-04-24T01:58:55;12.00;99.90
20376;DHT22;10347;51.828;6.466;2023-04-24T02:01:21;12.10;99.90
20376;DHT22;10347;51.828;6.466;2023-04-24T02:03:46;12.00;99.90
20376;DHT22;10347;51.828;6.466;2023-04-24T02:06:12;12.00;99.90
20376;DHT22;10347;51.828;6.466;2023-04-24T02:08:37;12.00;99.90
20376;DHT22;10347;51.828;6.466;2023-04-24T02:11:03;12.00;99.90
20376;DHT22;10347;51.828;6.466;2023-04-24T02:13:29;11.90;99.90
20376;DHT22;10347;51.828;6.466;2023-04-24T02:15:54;11.90;99.90
20376;DHT22;10347;51.828;6.466;2023-04-24T02:18:20;11.90;99.90
20376;DHT22;10347;51.828;6.466;2023-04-24T02:20:46;11.90;99.90
20376;DHT22;10347;51.828;6.466;2023-04-24T02:23:11;11.90;99.90
20376;DHT22;10347;51.828;6.466;2023-04-24T02:25:38;11.90;99.90
20376;DHT22;10347;51.828;6.466;2023-04-24T02:28:04;11.80;99.90
20376;DHT22;10347;51.828;6.466;2023-04-24T02:30:29;11.80;99.90
20376;DHT22;10347;51.828;6.466;2023-04-24T02:32:55;11.80;99.90
20376;DHT22;10347;51.828;6.466;2023-04-24T02:35:20;11.80;99.90
20376;DHT22;10347;51.828;6.466;2023-04-24T02:37:46;11.80;99.90
20376;DHT22;10347;51.828;6.466;2023-04-24T02:40:12;11.80;99.90
20376;DHT22;10347;51.828;6.466;2023-04-24T02:42:37;11.80;99.90
20376;DHT22;10347;51.828;6.466;2023-04-24T02:45:03;11.80;99.90
20376;DHT22;10347;51.828;6.466;2023-04-24T02:47:29;11.80;99.90
20376;DHT22;10347;51.828;6.466;2023-04-24T02:49:54;11.80;99.90
20376;DHT22;10347;51.828;6.466;2023-04-24T02:52:20;11.80;99.90
20376;DHT22;10347;51.828;6.466;2023-04-24T02:54:46;11.80;99.90
20376;DHT22;10347;51.828;6.466;2023-04-24T02:57:11;11.80;99.90
20376;DHT22;10347;51.828;6.466;2023-04-24T02:59:37;11.80;99.90
20376;DHT22;10347;51.828;6.466;2023-04-24T03:02:03;11.80;99.90
20376;DHT22;10347;51.828;6.466;2023-04-24T03:04:28;11.70;99.90
20376;DHT22;10347;51.828;6.466;2023-04-24T03:06:54;11.70;99.90
20376;DHT22;10347;51.828;6.466;2023-04-24T03:09:20;11.70;99.90
20376;DHT22;10347;51.828;6.466;2023-04-24T03:11:46;11.70;99.90
20376;DHT22;10347;51.828;6.466;2023-04-24T03:14:12;11.60;99.90
20376;DHT22;10347;51.828;6.466;2023-04-24T03:16:37;11.60;99.90
20376;DHT22;10347;51.828;6.466;2023-04-24T03:19:03;11.60;99.90
20376;DHT22;10347;51.828;6.466;2023-04-24T03:21:28;11.60;99.90
20376;DHT22;10347;51.828;6.466;2023-04-24T03:23:54;11.60;99.90
20376;DHT22;10347;51.828;6.466;2023-04-24T03:26:20;11.60;99.90
20376;DHT22;10347;51.828;6.466;2023-04-24T03:28:45;11.60;99.90
20376;DHT22;10347;51.828;6.466;2023-04-24T03:31:11;11.60;99.90
20376;DHT22;10347;51.828;6.466;2023-04-24T03:33:36;11.60;99.90
20376;DHT22;10347;51.828;6.466;2023-04-24T03:36:02;11.60;99.90
20376;DHT22;10347;51.828;6.466;2023-04-24T03:38:28;11.60;99.90
20376;DHT22;10347;51.828;6.466;2023-04-24T03:40:53;11.60;99.90
20376;DHT22;10347;51.828;6.466;2023-04-24T03:43:19;11.60;99.90
20376;DHT22;10347;51.828;6.466;2023-04-24T03:45:44;11.60;99.90
20376;DHT22;10347;51.828;6.466;2023-04-24T03:48:10;11.60;99.90
20376;DHT22;10347;51.828;6.466;2023-04-24T03:50:36;11.60;99.90
20376;DHT22;10347;51.828;6.466;2023-04-24T03:53:01;11.60;99.90
20376;DHT22;10347;51.828;6.466;2023-04-24T03:55:27;11.60;99.90
20376;DHT22;10347;51.828;6.466;2023-04-24T03:57:52;11.60;99.90
20376;DHT22;10347;51.828;6.466;2023-04-24T04:00:18;11.60;99.90
20376;DHT22;10347;51.828;6.466;2023-04-24T04:02:44;11.60;99.90
20376;DHT22;10347;51.828;6.466;2023-04-24T04:05:09;11.60;99.90
20376;DHT22;10347;51.828;6.466;2023-04-24T04:07:35;11.60;99.90
20376;DHT22;10347;51.828;6.466;2023-04-24T04:10:00;11.60;99.90
20376;DHT22;10347;51.828;6.466;2023-04-24T04:12:26;11.60;99.90
20376;DHT22;10347;51.828;6.466;2023-04-24T04:14:51;11.60;99.90
20376;DHT22;10347;51.828;6.466;2023-04-24T04:17:17;11.60;99.90
20376;DHT22;10347;51.828;6.466;2023-04-24T04:19:43;11.60;99.90
20376;DHT22;10347;51.828;6.466;2023-04-24T04:22:08;11.60;99.90
20376;DHT22;10347;51.828;6.466;2023-04-24T04:24:34;11.60;99.90
20376;DHT22;10347;51.828;6.466;2023-04-24T04:27:03;11.50;99.90
20376;DHT22;10347;51.828;6.466;2023-04-24T04:29:30;11.60;99.90
20376;DHT22;10347;51.828;6.466;2023-04-24T04:31:56;11.60;99.90
20376;DHT22;10347;51.828;6.466;2023-04-24T04:34:22;11.50;99.90
20376;DHT22;10347;51.828;6.466;2023-04-24T04:36:48;11.60;99.90
20376;DHT22;10347;51.828;6.466;2023-04-24T04:39:14;11.60;99.90
20376;DHT22;10347;51.828;6.466;2023-04-24T04:41:44;11.50;99.90
20376;DHT22;10347;51.828;6.466;2023-04-24T04:44:09;11.50;99.90
20376;DHT22;10347;51.828;6.466;2023-04-24T04:46:35;11.50;99.90
20376;DHT22;10347;51.828;6.466;2023-04-24T04:49:02;11.50;99.90
20376;DHT22;10347;51.828;6.466;2023-04-24T04:51:28;11.50;99.90
20376;DHT22;10347;51.828;6.466;2023-04-24T04:53:54;11.50;99.90
20376;DHT22;10347;51.828;6.466;2023-04-24T04:56:20;11.50;99.90
20376;DHT22;10347;51.828;6.466;2023-04-24T04:58:45;11.50;99.90
20376;DHT22;10347;51.828;6.466;2023-04-24T05:01:11;11.50;99.90
20376;DHT22;10347;51.828;6.466;2023-04-24T05:03:37;11.50;99.90
20376;DHT22;10347;51.828;6.466;2023-04-24T05:06:02;11.50;99.90
20376;DHT22;10347;51.828;6.466;2023-04-24T05:08:28;11.50;99.90
20376;DHT22;10347;51.828;6.466;2023-04-24T05:10:54;11.50;99.90
20376;DHT22;10347;51.828;6.466;2023-04-24T05:13:20;11.50;99.90
20376;DHT22;10347;51.828;6.466;2023-04-24T05:15:46;11.50;99.90
20376;DHT22;10347;51.828;6.466;2023-04-24T05:18:12;11.50;99.90
20376;DHT22;10347;51.828;6.466;2023-04-24T05:20:37;11.50;99.90
20376;DHT22;10347;51.828;6.466;2023-04-24T05:23:03;11.50;99.90
20376;DHT22;10347;51.828;6.466;2023-04-24T05:25:28;11.50;99.90
20376;DHT22;10347;51.828;6.466;2023-04-24T05:27:57;11.50;99.90
20376;DHT22;10347;51.828;6.466;2023-04-24T05:30:22;11.50;99.90
20376;DHT22;10347;51.828;6.466;2023-04-24T05:32:48;11.50;99.90
20376;DHT22;10347;51.828;6.466;2023-04-24T05:35:13;11.50;99.90
20376;DHT22;10347;51.828;6.466;2023-04-24T05:37:39;11.50;99.90
20376;DHT22;10347;51.828;6.466;2023-04-24T05:40:05;11.50;99.90
20376;DHT22;10347;51.828;6.466;2023-04-24T05:42:31;11.50;99.90
20376;DHT22;10347;51.828;6.466;2023-04-24T05:44:57;11.50;99.90
20376;DHT22;10347;51.828;6.466;2023-04-24T05:47:23;11.50;99.90
20376;DHT22;10347;51.828;6.466;2023-04-24T05:49:48;11.50;99.90
20376;DHT22;10347;51.828;6.466;2023-04-24T05:52:14;11.50;99.90
20376;DHT22;10347;51.828;6.466;2023-04-24T05:54:39;11.40;99.90
20376;DHT22;10347;51.828;6.466;2023-04-24T05:57:05;11.40;99.90
20376;DHT22;10347;51.828;6.466;2023-04-24T05:59:36;11.40;99.90
20376;DHT22;10347;51.828;6.466;2023-04-24T06:02:02;11.40;99.90
20376;DHT22;10347;51.828;6.466;2023-04-24T06:04:28;11.40;99.90
20376;DHT22;10347;51.828;6.466;2023-04-24T06:06:53;11.40;99.90
20376;DHT22;10347;51.828;6.466;2023-04-24T06:09:22;11.30;99.90
20376;DHT22;10347;51.828;6.466;2023-04-24T06:11:48;11.40;99.90
20376;DHT22;10347;51.828;6.466;2023-04-24T06:14:14;11.30;99.90
20376;DHT22;10347;51.828;6.466;2023-04-24T06:16:42;11.40;99.90
20376;DHT22;10347;51.828;6.466;2023-04-24T06:19:08;11.40;99.90
20376;DHT22;10347;51.828;6.466;2023-04-24T06:21:34;11.40;99.90
20376;DHT22;10347;51.828;6.466;2023-04-24T06:23:59;11.40;99.90
20376;DHT22;10347;51.828;6.466;2023-04-24T06:26:25;11.30;99.90
20376;DHT22;10347;51.828;6.466;2023-04-24T06:28:52;11.30;99.90
20376;DHT22;10347;51.828;6.466;2023-04-24T06:31:19;11.30;99.90
20376;DHT22;10347;51.828;6.466;2023-04-24T06:33:45;11.30;99.90
20376;DHT22;10347;51.828;6.466;2023-04-24T06:36:11;11.30;99.90
20376;DHT22;10347;51.828;6.466;2023-04-24T06:38:37;11.30;99.90
20376;DHT22;10347;51.828;6.466;2023-04-24T06:41:02;11.30;99.90
20376;DHT22;10347;51.828;6.466;2023-04-24T06:43:30;11.30;99.90
20376;DHT22;10347;51.828;6.466;2023-04-24T06:45:57;11.30;99.90
20376;DHT22;10347;51.828;6.466;2023-04-24T06:48:23;11.30;99.90
20376;DHT22;10347;51.828;6.466;2023-04-24T06:50:49;11.30;99.90
20376;DHT22;10347;51.828;6.466;2023-04-24T06:53:15;11.30;99.90
20376;DHT22;10347;51.828;6.466;2023-04-24T06:55:40;11.30;99.90
20376;DHT22;10347;51.828;6.466;2023-04-24T06:58:06;11.40;99.90
20376;DHT22;10347;51.828;6.466;2023-04-24T07:00:32;11.30;99.90
20376;DHT22;10347;51.828;6.466;2023-04-24T07:02:57;11.30;99.90
20376;DHT22;10347;51.828;6.466;2023-04-24T07:05:23;11.30;99.90
20376;DHT22;10347;51.828;6.466;2023-04-24T07:07:48;11.30;99.90
20376;DHT22;10347;51.828;6.466;2023-04-24T07:10:15;11.20;99.90
20376;DHT22;10347;51.828;6.466;2023-04-24T07:12:40;11.30;99.90
20376;DHT22;10347;51.828;6.466;2023-04-24T07:15:06;11.30;99.90
20376;DHT22;10347;51.828;6.466;2023-04-24T07:17:34;11.30;99.90
20376;DHT22;10347;51.828;6.466;2023-04-24T07:20:00;11.30;99.90
20376;DHT22;10347;51.828;6.466;2023-04-24T07:22:25;11.30;99.90
20376;DHT22;10347;51.828;6.466;2023-04-24T07:24:51;11.30;99.90
20376;DHT22;10347;51.828;6.466;2023-04-24T07:27:16;11.30;99.90
20376;DHT22;10347;51.828;6.466;2023-04-24T07:29:42;11.30;99.90
20376;DHT22;10347;51.828;6.466;2023-04-24T07:32:08;11.30;99.90
20376;DHT22;10347;51.828;6.466;2023-04-24T07:34:34;11.40;99.90
20376;DHT22;10347;51.828;6.466;2023-04-24T07:37:00;11.30;99.90
20376;DHT22;10347;51.828;6.466;2023-04-24T07:39:26;11.20;99.90
20376;DHT22;10347;51.828;6.466;2023-04-24T07:41:51;11.30;99.90
20376;DHT22;10347;51.828;6.466;2023-04-24T07:44:17;11.30;99.90
20376;DHT22;10347;51.828;6.466;2023-04-24T07:46:43;11.20;99.90
20376;DHT22;10347;51.828;6.466;2023-04-24T07:49:08;11.20;99.90
20376;DHT22;10347;51.828;6.466;2023-04-24T07:51:34;11.30;99.90
20376;DHT22;10347;51.828;6.466;2023-04-24T07:54:04;11.30;99.90
20376;DHT22;10347;51.828;6.466;2023-04-24T07:56:31;11.20;99.90
20376;DHT22;10347;51.828;6.466;2023-04-24T07:58:57;11.20;99.90
20376;DHT22;10347;51.828;6.466;2023-04-24T08:01:22;11.10;99.90
20376;DHT22;10347;51.828;6.466;2023-04-24T08:03:48;11.10;99.90
20376;DHT22;10347;51.828;6.466;2023-04-24T08:06:14;11.10;99.90
20376;DHT22;10347;51.828;6.466;2023-04-24T08:08:39;11.10;99.90
20376;DHT22;10347;51.828;6.466;2023-04-24T08:11:05;11.10;99.90
20376;DHT22;10347;51.828;6.466;2023-04-24T08:13:30;11.10;99.90
20376;DHT22;10347;51.828;6.466;2023-04-24T08:15:56;11.10;99.90
20376;DHT22;10347;51.828;6.466;2023-04-24T08:18:22;11.20;99.90
20376;DHT22;10347;51.828;6.466;2023-04-24T08:20:47;11.20;99.90
20376;DHT22;10347;51.828;6.466;2023-04-24T08:23:13;11.20;99.90
20376;DHT22;10347;51.828;6.466;2023-04-24T08:25:39;11.20;99.90
20376;DHT22;10347;51.828;6.466;2023-04-24T08:28:06;11.30;99.90
20376;DHT22;10347;51.828;6.466;2023-04-24T08:30:33;11.30;99.90
20376;DHT22;10347;51.828;6.466;2023-04-24T08:32:59;11.20;99.90
20376;DHT22;10347;51.828;6.466;2023-04-24T08:35:25;11.20;99.90
20376;DHT22;10347;51.828;6.466;2023-04-24T08:37:52;11.20;99.90
20376;DHT22;10347;51.828;6.466;2023-04-24T08:40:23;11.10;99.90
20376;DHT22;10347;51.828;6.466;2023-04-24T08:42:54;11.20;99.90
20376;DHT22;10347;51.828;6.466;2023-04-24T08:45:20;11.20;99.90
20376;DHT22;10347;51.828;6.466;2023-04-24T08:47:47;11.20;99.90
20376;DHT22;10347;51.828;6.466;2023-04-24T08:50:13;11.10;99.90
20376;DHT22;10347;51.828;6.466;2023-04-24T08:52:38;11.00;99.90
20376;DHT22;10347;51.828;6.466;2023-04-24T08:55:05;10.90;99.90
20376;DHT22;10347;51.828;6.466;2023-04-24T08:57:32;10.90;99.90
20376;DHT22;10347;51.828;6.466;2023-04-24T08:59:59;10.80;99.90
20376;DHT22;10347;51.828;6.466;2023-04-24T09:02:26;10.70;99.90
20376;DHT22;10347;51.828;6.466;2023-04-24T09:04:52;10.70;99.90
20376;DHT22;10347;51.828;6.466;2023-04-24T09:07:19;10.70;99.90
20376;DHT22;10347;51.828;6.466;2023-04-24T09:09:46;10.60;99.90
20376;DHT22;10347;51.828;6.466;2023-04-24T09:12:13;10.50;99.90
20376;DHT22;10347;51.828;6.466;2023-04-24T09:14:39;10.50;99.90
20376;DHT22;10347;51.828;6.466;2023-04-24T09:17:08;10.50;99.90
20376;DHT22;10347;51.828;6.466;2023-04-24T09:19:33;10.50;99.90
20376;DHT22;10347;51.828;6.466;2023-04-24T09:21:59;10.50;99.90
20376;DHT22;10347;51.828;6.466;2023-04-24T09:24:24;10.40;99.90
20376;DHT22;10347;51.828;6.466;2023-04-24T09:26:57;10.50;99.90
20376;DHT22;10347;51.828;6.466;2023-04-24T09:29:24;10.50;99.90
20376;DHT22;10347;51.828;6.466;2023-04-24T09:31:50;10.50;99.90
20376;DHT22;10347;51.828;6.466;2023-04-24T09:34:24;10.50;99.90
20376;DHT22;10347;51.828;6.466;2023-04-24T09:36:50;10.50;99.90
20376;DHT22;10347;51.828;6.466;2023-04-24T09:39:17;10.50;99.90
20376;DHT22;10347;51.828;6.466;2023-04-24T09:41:54;10.50;99.90
20376;DHT22;10347;51.828;6.466;2023-04-24T09:44:24;10.60;99.90
20376;DHT22;10347;51.828;6.466;2023-04-24T09:46:58;10.50;99.90
20376;DHT22;10347;51.828;6.466;2023-04-24T09:49:28;10.60;99.90
20376;DHT22;10347;51.828;6.466;2023-04-24T09:52:14;10.60;99.90
20376;DHT22;10347;51.828;6.466;2023-04-24T09:54:40;10.50;99.90
20376;DHT22;10347;51.828;6.466;2023-04-24T09:57:08;10.50;99.90
20376;DHT22;10347;51.828;6.466;2023-04-24T09:59:34;10.50;99.90
20376;DHT22;10347;51.828;6.466;2023-04-24T10:02:00;10.50;99.90
20376;DHT22;10347;51.828;6.466;2023-04-24T10:04:28;10.50;99.90
20376;DHT22;10347;51.828;6.466;2023-04-24T10:06:55;10.50;99.90
20376;DHT22;10347;51.828;6.466;2023-04-24T10:09:22;10.50;99.90
20376;DHT22;10347;51.828;6.466;2023-04-24T10:11:51;10.40;99.90
20376;DHT22;10347;51.828;6.466;2023-04-24T10:14:21;10.40;99.90
20376;DHT22;10347;51.828;6.466;2023-04-24T10:16:48;10.40;99.90
20376;DHT22;10347;51.828;6.466;2023-04-24T10:19:15;10.40;99.90
20376;DHT22;10347;51.828;6.466;2023-04-24T10:21:43;10.40;99.90
20376;DHT22;10347;51.828;6.466;2023-04-24T10:24:13;10.40;99.90
20376;DHT22;10347;51.828;6.466;2023-04-24T10:26:39;10.40;99.90
20376;DHT22;10347;51.828;6.466;2023-04-24T10:29:06;10.30;99.90
20376;DHT22;10347;51.828;6.466;2023-04-24T10:31:36;10.40;99.90
20376;DHT22;10347;51.828;6.466;2023-04-24T10:34:04;10.40;99.90
20376;DHT22;10347;51.828;6.466;2023-04-24T10:36:30;10.50;99.90
20376;DHT22;10347;51.828;6.466;2023-04-24T10:39:00;10.50;99.90
20376;DHT22;10347;51.828;6.466;2023-04-24T10:41:26;10.50;99.90
20376;DHT22;10347;51.828;6.466;2023-04-24T10:44:08;10.50;99.90
20376;DHT22;10347;51.828;6.466;2023-04-24T10:46:34;10.60;99.90
20376;DHT22;10347;51.828;6.466;2023-04-24T10:49:04;10.60;99.90
20376;DHT22;10347;51.828;6.466;2023-04-24T10:54:26;10.70;99.90
20376;DHT22;10347;51.828;6.466;2023-04-24T10:56:52;10.80;99.90
20376;DHT22;10347;51.828;6.466;2023-04-24T10:59:28;10.80;99.90
20376;DHT22;10347;51.828;6.466;2023-04-24T11:02:00;10.80;99.90
20376;DHT22;10347;51.828;6.466;2023-04-24T11:04:32;10.90;99.90
20376;DHT22;10347;51.828;6.466;2023-04-24T11:06:58;10.90;99.90
20376;DHT22;10347;51.828;6.466;2023-04-24T11:09:27;11.00;99.90
20376;DHT22;10347;51.828;6.466;2023-04-24T11:12:03;11.10;99.90
20376;DHT22;10347;51.828;6.466;2023-04-24T11:14:59;11.20;99.90
20376;DHT22;10347;51.828;6.466;2023-04-24T11:17:35;11.30;99.90
20376;DHT22;10347;51.828;6.466;2023-04-24T11:20:16;11.40;99.90
20376;DHT22;10347;51.828;6.466;2023-04-24T11:22:42;11.40;99.90
20376;DHT22;10347;51.828;6.466;2023-04-24T11:25:09;11.40;99.90
20376;DHT22;10347;51.828;6.466;2023-04-24T11:27:44;11.50;99.90
20376;DHT22;10347;51.828;6.466;2023-04-24T11:30:11;11.50;99.90
20376;DHT22;10347;51.828;6.466;2023-04-24T11:32:39;11.40;99.90
20376;DHT22;10347;51.828;6.466;2023-04-24T11:35:12;11.40;99.90
20376;DHT22;10347;51.828;6.466;2023-04-24T11:37:40;11.40;99.90
20376;DHT22;10347;51.828;6.466;2023-04-24T11:40:11;11.40;99.90
20376;DHT22;10347;51.828;6.466;2023-04-24T11:42:45;11.40;99.90
20376;DHT22;10347;51.828;6.466;2023-04-24T11:45:21;11.40;99.90
20376;DHT22;10347;51.828;6.466;2023-04-24T11:47:46;11.40;99.90
20376;DHT22;10347;51.828;6.466;2023-04-24T11:50:14;11.40;99.90
20376;DHT22;10347;51.828;6.466;2023-04-24T11:52:42;11.50;99.90
20376;DHT22;10347;51.828;6.466;2023-04-24T11:57:46;11.50;99.90
20376;DHT22;10347;51.828;6.466;2023-04-24T12:00:18;11.50;99.90
20376;DHT22;10347;51.828;6.466;2023-04-24T12:02:44;11.40;99.90
20376;DHT22;10347;51.828;6.466;2023-04-24T12:05:26;11.30;99.90
20376;DHT22;10347;51.828;6.466;2023-04-24T12:07:52;11.30;99.90
20376;DHT22;10347;51.828;6.466;2023-04-24T12:10:25;11.30;99.90
20376;DHT22;10347;51.828;6.466;2023-04-24T12:12:52;11.40;99.90
20376;DHT22;10347;51.828;6.466;2023-04-24T12:15:21;11.40;99.90
20376;DHT22;10347;51.828;6.466;2023-04-24T12:17:47;11.50;99.90
20376;DHT22;10347;51.828;6.466;2023-04-24T12:20:13;11.40;99.90
20376;DHT22;10347;51.828;6.466;2023-04-24T12:25:11;11.40;99.90
20376;DHT22;10347;51.828;6.466;2023-04-24T12:27:37;11.40;99.90
20376;DHT22;10347;51.828;6.466;2023-04-24T12:30:09;11.50;99.90
20376;DHT22;10347;51.828;6.466;2023-04-24T12:32:41;11.40;99.90
20376;DHT22;10347;51.828;6.466;2023-04-24T12:35:07;11.40;99.90
20376;DHT22;10347;51.828;6.466;2023-04-24T12:37:33;11.40;99.90
20376;DHT22;10347;51.828;6.466;2023-04-24T12:40:05;11.50;99.90
20376;DHT22;10347;51.828;6.466;2023-04-24T12:42:31;11.60;99.90
20376;DHT22;10347;51.828;6.466;2023-04-24T12:45:04;11.60;99.90
20376;DHT22;10347;51.828;6.466;2023-04-24T12:47:30;11.50;99.90
20376;DHT22;10347;51.828;6.466;2023-04-24T12:49:56;11.60;99.90
20376;DHT22;10347;51.828;6.466;2023-04-24T12:52:23;11.50;99.90
20376;DHT22;10347;51.828;6.466;2023-04-24T12:54:55;11.60;99.90
20376;DHT22;10347;51.828;6.466;2023-04-24T12:57:22;11.60;99.90
20376;DHT22;10347;51.828;6.466;2023-04-24T12:59:48;11.60;99.90
20376;DHT22;10347;51.828;6.466;2023-04-24T13:02:13;11.60;99.90
20376;DHT22;10347;51.828;6.466;2023-04-24T13:04:45;11.60;99.90
20376;DHT22;10347;51.828;6.466;2023-04-24T13:07:12;11.60;99.90
20376;DHT22;10347;51.828;6.466;2023-04-24T13:09:38;11.60;99.90
20376;DHT22;10347;51.828;6.466;2023-04-24T13:12:03;11.60;99.90
20376;DHT22;10347;51.828;6.466;2023-04-24T13:14:31;11.50;99.90
20376;DHT22;10347;51.828;6.466;2023-04-24T13:16:56;11.50;99.90
20376;DHT22;10347;51.828;6.466;2023-04-24T13:19:24;11.50;99.90
20376;DHT22;10347;51.828;6.466;2023-04-24T13:21:51;11.50;99.90
20376;DHT22;10347;51.828;6.466;2023-04-24T13:24:17;11.40;99.90
20376;DHT22;10347;51.828;6.466;2023-04-24T13:26:43;11.40;99.90
20376;DHT22;10347;51.828;6.466;2023-04-24T13:29:09;11.40;99.90
20376;DHT22;10347;51.828;6.466;2023-04-24T13:31:34;11.40;99.90
20376;DHT22;10347;51.828;6.466;2023-04-24T13:34:01;11.30;99.90
20376;DHT22;10347;51.828;6.466;2023-04-24T13:36:27;11.20;99.90
20376;DHT22;10347;51.828;6.466;2023-04-24T13:38:52;11.20;99.90
20376;DHT22;10347;51.828;6.466;2023-04-24T13:41:18;11.10;99.90
20376;DHT22;10347;51.828;6.466;2023-04-24T13:43:43;11.00;99.90
20376;DHT22;10347;51.828;6.466;2023-04-24T13:46:09;11.00;99.90
20376;DHT22;10347;51.828;6.466;2023-04-24T13:48:34;11.00;99.90
20376;DHT22;10347;51.828;6.466;2023-04-24T13:51:00;11.00;99.90
20376;DHT22;10347;51.828;6.466;2023-04-24T13:53:26;10.90;99.90
20376;DHT22;10347;51.828;6.466;2023-04-24T13:55:51;10.90;99.90
20376;DHT22;10347;51.828;6.466;2023-04-24T13:58:17;10.90;99.90
20376;DHT22;10347;51.828;6.466;2023-04-24T14:00:42;11.00;99.90
20376;DHT22;10347;51.828;6.466;2023-04-24T14:03:08;11.00;99.90
20376;DHT22;10347;51.828;6.466;2023-04-24T14:05:34;11.10;99.90
20376;DHT22;10347;51.828;6.466;2023-04-24T14:07:59;11.10;99.90
20376;DHT22;10347;51.828;6.466;2023-04-24T14:10:25;11.10;99.90
20376;DHT22;10347;51.828;6.466;2023-04-24T14:12:53;11.10;99.90
20376;DHT22;10347;51.828;6.466;2023-04-24T14:15:19;11.10;99.90
20376;DHT22;10347;51.828;6.466;2023-04-24T14:17:44;11.20;99.90
20376;DHT22;10347;51.828;6.466;2023-04-24T14:20:11;11.20;99.90
20376;DHT22;10347;51.828;6.466;2023-04-24T14:22:37;11.20;99.90
20376;DHT22;10347;51.828;6.466;2023-04-24T14:25:04;11.30;99.90
20376;DHT22;10347;51.828;6.466;2023-04-24T14:27:31;11.30;99.90
20376;DHT22;10347;51.828;6.466;2023-04-24T14:29:57;11.40;99.90
20376;DHT22;10347;51.828;6.466;2023-04-24T14:32:23;11.40;99.90
20376;DHT22;10347;51.828;6.466;2023-04-24T14:34:48;11.30;99.90
20376;DHT22;10347;51.828;6.466;2023-04-24T14:37:14;11.40;99.90
20376;DHT22;10347;51.828;6.466;2023-04-24T14:39:40;11.40;99.90
20376;DHT22;10347;51.828;6.466;2023-04-24T14:42:06;11.40;99.90
20376;DHT22;10347;51.828;6.466;2023-04-24T14:44:31;11.50;99.90
20376;DHT22;10347;51.828;6.466;2023-04-24T14:46:58;11.50;99.90
20376;DHT22;10347;51.828;6.466;2023-04-24T14:49:24;11.50;99.90
20376;DHT22;10347;51.828;6.466;2023-04-24T14:51:49;11.40;99.90
20376;DHT22;10347;51.828;6.466;2023-04-24T14:54:15;11.40;99.90
20376;DHT22;10347;51.828;6.466;2023-04-24T14:56:40;11.40;99.90
20376;DHT22;10347;51.828;6.466;2023-04-24T14:59:08;11.40;99.90
20376;DHT22;10347;51.828;6.466;2023-04-24T15:01:33;11.40;99.90
20376;DHT22;10347;51.828;6.466;2023-04-24T15:03:59;11.40;99.90
20376;DHT22;10347;51.828;6.466;2023-04-24T15:06:24;11.50;99.90
20376;DHT22;10347;51.828;6.466;2023-04-24T15:08:50;11.50;99.90
20376;DHT22;10347;51.828;6.466;2023-04-24T15:11:15;11.50;99.90
20376;DHT22;10347;51.828;6.466;2023-04-24T15:13:41;11.50;99.90
20376;DHT22;10347;51.828;6.466;2023-04-24T15:16:07;11.60;99.90
20376;DHT22;10347;51.828;6.466;2023-04-24T15:18:32;11.60;99.90
20376;DHT22;10347;51.828;6.466;2023-04-24T15:20:58;11.60;99.90
20376;DHT22;10347;51.828;6.466;2023-04-24T15:23:23;11.60;99.90
20376;DHT22;10347;51.828;6.466;2023-04-24T15:25:49;11.70;99.90
20376;DHT22;10347;51.828;6.466;2023-04-24T15:28:15;11.80;99.90
20376;DHT22;10347;51.828;6.466;2023-04-24T15:30:41;11.70;99.90
20376;DHT22;10347;51.828;6.466;2023-04-24T15:33:07;11.70;99.90
20376;DHT22;10347;51.828;6.466;2023-04-24T15:35:33;11.80;99.90